Laman API Video Percuma Terbaik

AVDBAPI.COM

Cari katalog, semak rekod, dan salin URL API bersih daripada papan pemuka pantas.

Telegram Join Our Telegram Community for Updates!
Today
0
Kemaskini Hari Ini
Censored
313977
Censored Videos
Total
474136
Total Videos

Senarai Video

Rekod terkini disusun mengikut masa kemas kini.

ID Nama CODE Kategori Dikemaskini API
262658 120921-01 Memeras pekerja wanita syarikat lalu membawanya ke hotel cinta dan menembak sperma ke dalam vaginanya 120921-01 Tanpa sensor 2025-08-28 21:34:40 API
262657 033117-002 Pelacur Cantik ~ Wanita Murahan Menggoda Dengan Skirt Mini Ketat ~ 033117-002 Tanpa sensor 2025-08-28 21:34:30 API
262656 MD0126 Pelayan Seksi / Servis Peribadi 24 Jam MD0126 AV Cina 2025-08-28 21:34:20 API
262655 KB1563 Team Kimura Edisi Khas: Pelajar Wanita Ditusuk Tanpa Henti - KB1563 Tanpa sensor 2025-08-28 21:34:10 API
262654 081522-001 Eksorsisme Faraj Yang Kerasukan SEX Kuroki Mio 081522-001 Tanpa sensor 2025-08-28 21:34:00 API
262653 C-220306 Tsukasa Aoki Gadis 20 Tahun C-220306 Tanpa sensor 2025-08-28 21:33:50 API
262652 MD0127 Kongsi Isteri Pelacur / Latihan Keras Gadis Perawan Junior MD0127 AV Cina 2025-08-28 21:33:40 API
262651 FC2-PPV-4501691 Ketibaan terus pada 4 Ogos, terhad 980pt! *Ulasan tidak diiktiraf / Ujian sensitiviti faraj FC2-PPV-4501691 Tanpa sensor 2025-08-28 21:33:30 API
262650 QT003 Ibu Mertua Menyelinap ke Katil Menantu Demi Menjadi Kekasih Anak Perempuannya QT003 AV Cina 2025-08-28 21:33:20 API
262649 HEYZO-2826 Moe Yamada Tanpa Henti! !! Syurga Kenikmatan - Sehingga teka-teki bertukar menjadi kepuasan melampau - HEYZO-2826 Tanpa sensor 2025-08-28 21:33:10 API
262648 042921_001 Pelacur M Tomoka Yoda 042921_001 Tanpa sensor 2025-08-28 21:33:00 API
262647 CUS-2100 Pengalaman Imersif POV Bersama Gadis Cantik Berambut Twin Tails CUS-2100 AV Cina 2025-08-28 21:32:50 API
262646 033117-003 Wanita Kerjaya Seksi ~ OL ~ 033117-003 Tanpa sensor 2025-08-28 21:32:40 API
262645 MD0128 Pertemuan 3P Liar / Pergelutan seks antara adik ipar perempuan dan abang ipar MD0128 AV Cina 2025-08-28 21:32:30 API
262644 121021-01 Blowjob Gadis Muka Baby Yang Jilat Macam Makan Aiskrim 121021-01 Tanpa sensor 2025-08-28 21:32:20 API
262643 110921-556 Rupa Eksotik dan Areola yang Lucah 110921-556 Tanpa sensor 2025-08-28 21:32:10 API
262642 H0930-KI220802 Nana Osaki Wanita 35 Tahun Yang Menggiurkan H0930-KI220802 Tanpa sensor 2025-08-28 21:32:00 API
262641 H-0069 Miya Masuda H-0069 Tanpa sensor 2025-08-28 21:31:50 API
262640 LY050 Wanita yang tidur dengan bosnya menebus dosa dengan tubuhnya, dan wanita yang menanggung kesalahan bosnya juga cuba menebus dosa dengan badannya sendiri LY050 AV Cina 2025-08-28 21:31:40 API
262639 C0930-KI220310 Wanita Matang 39 Tahun Sachiko Furukawa C0930-KI220310 Tanpa sensor 2025-08-28 21:31:30 API
262638 NKD-052 Malaikat Telanjang Kana NKD-052-B Tanpa sensor 2025-08-28 21:31:20 API
262637 HEYZO-2855 Yuko Tenkata [Yuko Amakata] An obscene secret of an immoral wife that can not be said to her husband Vol.6 HEYZO-2855 Tanpa sensor 2025-08-28 21:31:10 API
262636 043021_001 Nana Ueyama, isteri jiran yang nakal tanpa bra semasa membuang sampah di waktu pagi 043021_001 Tanpa sensor 2025-08-28 21:31:00 API
262635 081622-001 Gadis Comel Nak Kena Serang Dua Lubang Sekaligus! Rina Kawamura 081622-001 Tanpa sensor 2025-08-28 21:30:50 API
262634 CUS-473 [Bilik Karaoke Seksi Ep.1] Gadis Madou menyanyi dengan malu-malu! Capai nada tinggi bersama dewi Qin Kexin! CUS-473 AV Cina 2025-08-28 21:30:40 API
262633 MFK0051 Abang Ipar, jadilah milikku MFK0051 AV Cina 2025-08-28 21:30:30 API
262632 MD0124 Siri Debut / Gadis Liar / Dewi Baharu Xu Shuman MD0124 AV Cina 2025-08-28 21:30:20 API
262631 033117-004 Catwalk Poison 154 Tanpa Sensor 033117-004 Tanpa sensor 2025-08-28 21:30:10 API
262629 050121_001 Pelacur M Momoka Ogawa 050121_001 Tanpa sensor 2025-08-28 21:29:50 API
262628 H4610-KI221004 Gadis Cantik 24 Tahun Shizuka Nishimura H4610-KI221004 Tanpa sensor 2025-08-28 21:29:40 API
262627 H0930-KI220804 Yuri Kurashiki Wanita 36 Tahun Yang Menggiurkan H0930-KI220804 Tanpa sensor 2025-08-28 21:29:30 API
262626 111121-557 Dokumentasi Penggambaran Pertama Isteri Amatir 95 Noriko Seiki 111121-557 Tanpa sensor 2025-08-28 21:29:20 API
262625 C-220310 Sachiko Furukawa Wanita Matang 39 Tahun C-220310 Tanpa sensor 2025-08-28 21:29:10 API
262624 MD0125 Makcik, saya tak mahu kerja kuat / Wanita kaya yang seksi melayan lelaki muda MD0125 AV Cina 2025-08-28 21:29:00 API
262623 CUS-2101 Elephant Media: Senior Liar Dengan Payudara Besar Putih Lembut Yang Berayun CUS-2101 AV Cina 2025-08-28 21:28:50 API
262622 050221_001 Seks Tanpa Henti Bersama Nana Nanaumi 050221_001 Tanpa sensor 2025-08-28 21:28:40 API
262621 121421-01 Tubuhku terasa membara semasa menerima bimbingan lakonan 121421-01 Tanpa sensor 2025-08-28 21:28:30 API
262620 081722-001 Isteri ini terlalu ghairah! Tayang belahan dada ke tempat pembuangan sampah 081722-001 Tanpa sensor 2025-08-28 21:28:20 API
262619 111321-558 Kembalinya Wanita Matang: Jilat Dubur dan Seks Anal Himeno Misao 111321-558 Tanpa sensor 2025-08-28 21:28:10 API
262618 HEYZO-2828 Sari Nakamura [Sari Nakamura] Jom nikmati hidangan manis bersama Sari Nakamura! HEYZO-2828 Tanpa sensor 2025-08-28 21:28:00 API
262617 JUP0034 Janda Syaitan! Serangan Bondage SM Yang Kejam JUP0034 Tanpa sensor 2025-08-28 21:27:50 API
262616 CUS-2102 Suami Cuckold Saya Menonton Saya Dikongkek Oleh Pelanggan CUS-2102 AV Cina 2025-08-28 21:27:40 API
262615 MD0121 Perempuan Gila Dengan Seks Kinky Malam Solstis Musim Sejuk MD0121 AV Cina 2025-08-28 21:27:30 API
262614 CARIBBEANCOMPR-040517_003 Orgasm Berterusan Sambil Menjerit Nikmat CARIBBEANCOMPR-040517_003 Tanpa sensor 2025-08-28 21:27:20 API
262613 FC2-PPV-4507938 "Nilai Hebat FC2-PPV-4507938 Tanpa sensor 2025-08-28 21:27:10 API
262612 WMOG018 Pelajar Asing Cup E Berpayudara Besar Pergi Urut di Laut Dan Dikentot Sampai Pancut WMOG018 AV Cina 2025-08-28 21:27:00 API
262611 050421_001 Pelacur Miyuki Sakura 050421_001 Tanpa sensor 2025-08-28 21:26:50 API
262610 HEYZO-2851 Kate Pippi: Anda boleh buat apa sahaja jika rasa selesa, nikmati hidup dengan 3P bersama 2 gadis cantik! HEYZO-2851 Tanpa sensor 2025-08-28 21:26:40 API
262609 111621-559 Seks sebenar, kungking padu 111621-559 Tanpa sensor 2025-08-28 21:26:30 API
262608 C0930-KI220313 Wanita Matang Seksi Abe Kanae Umur 56 Tahun C0930-KI220313 Tanpa sensor 2025-08-28 21:26:20 API